sensor_id;sensor_type;location;lat;lon;timestamp;P1;durP1;ratioP1;P2;durP2;ratioP2
52576;SDS011;38469;53.562;10.048;2023-07-31T00:01:40;13.63;;;3.97;;
52576;SDS011;38469;53.562;10.048;2023-07-31T00:04:08;8.73;;;3.92;;
52576;SDS011;38469;53.562;10.048;2023-07-31T00:06:34;11.88;;;4.10;;
52576;SDS011;38469;53.562;10.048;2023-07-31T00:09:01;7.93;;;3.60;;
52576;SDS011;38469;53.562;10.048;2023-07-31T00:11:27;9.68;;;3.83;;
52576;SDS011;38469;53.562;10.048;2023-07-31T00:13:54;10.48;;;3.67;;
52576;SDS011;38469;53.562;10.048;2023-07-31T00:16:20;11.65;;;3.33;;
52576;SDS011;38469;53.562;10.048;2023-07-31T00:18:47;14.10;;;3.50;;
52576;SDS011;38469;53.562;10.048;2023-07-31T00:21:15;10.57;;;3.35;;
52576;SDS011;38469;53.562;10.048;2023-07-31T00:23:41;12.18;;;3.60;;
52576;SDS011;38469;53.562;10.048;2023-07-31T00:26:08;12.38;;;3.22;;
52576;SDS011;38469;53.562;10.048;2023-07-31T00:28:34;8.07;;;3.20;;
52576;SDS011;38469;53.562;10.048;2023-07-31T00:31:00;10.48;;;2.97;;
52576;SDS011;38469;53.562;10.048;2023-07-31T00:33:28;7.63;;;2.90;;
52576;SDS011;38469;53.562;10.048;2023-07-31T00:35:55;8.93;;;3.75;;
52576;SDS011;38469;53.562;10.048;2023-07-31T00:38:23;9.15;;;3.40;;
52576;SDS011;38469;53.562;10.048;2023-07-31T00:40:50;7.97;;;3.10;;
52576;SDS011;38469;53.562;10.048;2023-07-31T00:43:16;8.60;;;3.38;;
52576;SDS011;38469;53.562;10.048;2023-07-31T00:45:43;9.43;;;3.20;;
52576;SDS011;38469;53.562;10.048;2023-07-31T00:48:10;9.27;;;3.22;;
52576;SDS011;38469;53.562;10.048;2023-07-31T00:50:36;7.80;;;2.50;;
52576;SDS011;38469;53.562;10.048;2023-07-31T00:53:03;9.80;;;2.83;;
52576;SDS011;38469;53.562;10.048;2023-07-31T00:55:32;10.68;;;2.83;;
52576;SDS011;38469;53.562;10.048;2023-07-31T00:57:58;8.25;;;2.55;;
52576;SDS011;38469;53.562;10.048;2023-07-31T01:00:25;14.40;;;2.70;;
52576;SDS011;38469;53.562;10.048;2023-07-31T01:02:51;10.00;;;2.40;;
52576;SDS011;38469;53.562;10.048;2023-07-31T01:05:18;10.40;;;2.92;;
52576;SDS011;38469;53.562;10.048;2023-07-31T01:07:52;8.73;;;2.67;;
52576;SDS011;38469;53.562;10.048;2023-07-31T01:10:23;12.95;;;2.72;;
52576;SDS011;38469;53.562;10.048;2023-07-31T01:12:54;8.38;;;2.60;;
52576;SDS011;38469;53.562;10.048;2023-07-31T01:15:22;9.20;;;2.70;;
52576;SDS011;38469;53.562;10.048;2023-07-31T01:17:49;13.35;;;3.00;;
52576;SDS011;38469;53.562;10.048;2023-07-31T01:20:17;7.45;;;3.22;;
52576;SDS011;38469;53.562;10.048;2023-07-31T01:22:51;10.57;;;3.28;;
52576;SDS011;38469;53.562;10.048;2023-07-31T01:28:25;10.55;;;3.13;;
52576;SDS011;38469;53.562;10.048;2023-07-31T01:30:58;10.88;;;3.58;;
52576;SDS011;38469;53.562;10.048;2023-07-31T01:33:26;9.18;;;3.00;;
52576;SDS011;38469;53.562;10.048;2023-07-31T01:35:53;9.00;;;3.20;;
52576;SDS011;38469;53.562;10.048;2023-07-31T01:38:20;5.35;;;3.33;;
52576;SDS011;38469;53.562;10.048;2023-07-31T01:40:50;8.73;;;3.30;;
52576;SDS011;38469;53.562;10.048;2023-07-31T01:43:19;6.20;;;3.50;;
52576;SDS011;38469;53.562;10.048;2023-07-31T01:45:46;7.65;;;3.17;;
52576;SDS011;38469;53.562;10.048;2023-07-31T01:48:12;12.63;;;3.50;;
52576;SDS011;38469;53.562;10.048;2023-07-31T01:50:38;9.52;;;3.25;;
52576;SDS011;38469;53.562;10.048;2023-07-31T01:53:05;7.72;;;2.83;;
52576;SDS011;38469;53.562;10.048;2023-07-31T01:55:31;10.52;;;3.30;;
52576;SDS011;38469;53.562;10.048;2023-07-31T01:57:58;8.13;;;3.20;;
52576;SDS011;38469;53.562;10.048;2023-07-31T02:00:26;7.45;;;3.40;;
52576;SDS011;38469;53.562;10.048;2023-07-31T02:02:52;9.73;;;3.00;;
52576;SDS011;38469;53.562;10.048;2023-07-31T02:05:19;9.93;;;3.30;;
52576;SDS011;38469;53.562;10.048;2023-07-31T02:07:45;8.38;;;3.20;;
52576;SDS011;38469;53.562;10.048;2023-07-31T02:10:11;10.07;;;3.28;;
52576;SDS011;38469;53.562;10.048;2023-07-31T02:12:38;14.40;;;3.70;;
52576;SDS011;38469;53.562;10.048;2023-07-31T02:15:05;7.95;;;3.45;;
52576;SDS011;38469;53.562;10.048;2023-07-31T02:17:33;9.60;;;3.10;;
52576;SDS011;38469;53.562;10.048;2023-07-31T02:20:00;5.03;;;3.08;;
52576;SDS011;38469;53.562;10.048;2023-07-31T02:22:26;7.15;;;3.10;;
52576;SDS011;38469;53.562;10.048;2023-07-31T02:24:53;10.02;;;3.40;;
52576;SDS011;38469;53.562;10.048;2023-07-31T02:27:19;11.32;;;3.47;;
52576;SDS011;38469;53.562;10.048;2023-07-31T02:29:49;8.10;;;3.15;;
52576;SDS011;38469;53.562;10.048;2023-07-31T02:32:15;8.13;;;3.20;;
52576;SDS011;38469;53.562;10.048;2023-07-31T02:34:43;6.93;;;3.00;;
52576;SDS011;38469;53.562;10.048;2023-07-31T02:37:09;8.52;;;3.22;;
52576;SDS011;38469;53.562;10.048;2023-07-31T02:39:36;9.48;;;3.10;;
52576;SDS011;38469;53.562;10.048;2023-07-31T02:42:03;6.68;;;2.90;;
52576;SDS011;38469;53.562;10.048;2023-07-31T02:44:30;10.52;;;3.00;;
52576;SDS011;38469;53.562;10.048;2023-07-31T02:46:57;8.82;;;3.38;;
52576;SDS011;38469;53.562;10.048;2023-07-31T02:49:23;5.55;;;2.83;;
52576;SDS011;38469;53.562;10.048;2023-07-31T02:51:51;7.53;;;2.97;;
52576;SDS011;38469;53.562;10.048;2023-07-31T02:54:17;6.70;;;2.58;;
52576;SDS011;38469;53.562;10.048;2023-07-31T02:56:45;6.68;;;3.13;;
52576;SDS011;38469;53.562;10.048;2023-07-31T02:59:12;8.40;;;3.03;;
52576;SDS011;38469;53.562;10.048;2023-07-31T03:01:38;7.55;;;2.90;;
52576;SDS011;38469;53.562;10.048;2023-07-31T03:04:05;5.85;;;2.97;;
52576;SDS011;38469;53.562;10.048;2023-07-31T03:06:31;6.57;;;2.95;;
52576;SDS011;38469;53.562;10.048;2023-07-31T03:08:59;7.10;;;2.90;;
52576;SDS011;38469;53.562;10.048;2023-07-31T03:11:25;6.47;;;2.60;;
52576;SDS011;38469;53.562;10.048;2023-07-31T03:13:52;10.70;;;3.60;;
52576;SDS011;38469;53.562;10.048;2023-07-31T03:16:19;5.82;;;2.72;;
52576;SDS011;38469;53.562;10.048;2023-07-31T03:18:45;5.13;;;2.53;;
52576;SDS011;38469;53.562;10.048;2023-07-31T03:21:12;6.93;;;3.25;;
52576;SDS011;38469;53.562;10.048;2023-07-31T03:23:38;5.78;;;3.13;;
52576;SDS011;38469;53.562;10.048;2023-07-31T03:26:07;7.70;;;2.72;;
52576;SDS011;38469;53.562;10.048;2023-07-31T03:28:34;8.07;;;3.17;;
52576;SDS011;38469;53.562;10.048;2023-07-31T03:31:00;7.97;;;3.47;;
52576;SDS011;38469;53.562;10.048;2023-07-31T03:33:27;6.85;;;2.72;;
52576;SDS011;38469;53.562;10.048;2023-07-31T03:35:53;8.07;;;2.90;;
52576;SDS011;38469;53.562;10.048;2023-07-31T03:38:20;6.35;;;2.95;;
52576;SDS011;38469;53.562;10.048;2023-07-31T03:40:46;10.90;;;3.30;;
52576;SDS011;38469;53.562;10.048;2023-07-31T03:43:14;7.82;;;2.97;;
52576;SDS011;38469;53.562;10.048;2023-07-31T03:45:41;5.82;;;2.80;;
52576;SDS011;38469;53.562;10.048;2023-07-31T03:48:08;5.55;;;2.70;;
52576;SDS011;38469;53.562;10.048;2023-07-31T03:50:34;5.63;;;2.88;;
52576;SDS011;38469;53.562;10.048;2023-07-31T03:53:01;4.63;;;2.60;;
52576;SDS011;38469;53.562;10.048;2023-07-31T03:55:27;5.97;;;3.15;;
52576;SDS011;38469;53.562;10.048;2023-07-31T03:57:54;8.90;;;3.00;;
52576;SDS011;38469;53.562;10.048;2023-07-31T04:00:21;6.65;;;2.97;;
52576;SDS011;38469;53.562;10.048;2023-07-31T04:02:48;3.38;;;2.80;;
52576;SDS011;38469;53.562;10.048;2023-07-31T04:05:14;7.32;;;2.80;;
52576;SDS011;38469;53.562;10.048;2023-07-31T04:07:41;4.13;;;2.80;;
52576;SDS011;38469;53.562;10.048;2023-07-31T04:10:07;4.13;;;2.80;;
52576;SDS011;38469;53.562;10.048;2023-07-31T04:12:34;5.80;;;2.60;;
52576;SDS011;38469;53.562;10.048;2023-07-31T04:15:01;4.13;;;2.90;;
52576;SDS011;38469;53.562;10.048;2023-07-31T04:17:29;4.65;;;2.40;;
52576;SDS011;38469;53.562;10.048;2023-07-31T04:19:55;4.15;;;2.60;;
52576;SDS011;38469;53.562;10.048;2023-07-31T04:22:21;3.50;;;2.63;;
52576;SDS011;38469;53.562;10.048;2023-07-31T04:24:48;3.58;;;2.10;;
52576;SDS011;38469;53.562;10.048;2023-07-31T04:27:14;4.43;;;2.63;;
52576;SDS011;38469;53.562;10.048;2023-07-31T04:29:41;3.72;;;2.25;;
52576;SDS011;38469;53.562;10.048;2023-07-31T04:32:09;6.47;;;2.63;;
52576;SDS011;38469;53.562;10.048;2023-07-31T04:34:37;4.57;;;2.72;;
52576;SDS011;38469;53.562;10.048;2023-07-31T04:37:03;3.75;;;2.30;;
52576;SDS011;38469;53.562;10.048;2023-07-31T04:39:30;2.97;;;2.45;;
52576;SDS011;38469;53.562;10.048;2023-07-31T04:41:56;5.72;;;3.17;;
52576;SDS011;38469;53.562;10.048;2023-07-31T04:44:23;3.63;;;2.78;;
52576;SDS011;38469;53.562;10.048;2023-07-31T04:46:49;2.97;;;2.50;;
52576;SDS011;38469;53.562;10.048;2023-07-31T04:49:15;2.95;;;2.40;;
52576;SDS011;38469;53.562;10.048;2023-07-31T04:51:43;3.28;;;2.40;;
52576;SDS011;38469;53.562;10.048;2023-07-31T04:54:10;3.83;;;2.60;;
52576;SDS011;38469;53.562;10.048;2023-07-31T04:56:37;6.40;;;2.30;;
52576;SDS011;38469;53.562;10.048;2023-07-31T04:59:04;4.55;;;2.90;;
52576;SDS011;38469;53.562;10.048;2023-07-31T05:01:30;9.23;;;2.85;;
52576;SDS011;38469;53.562;10.048;2023-07-31T05:03:57;4.68;;;2.97;;
52576;SDS011;38469;53.562;10.048;2023-07-31T05:06:23;5.43;;;2.38;;
52576;SDS011;38469;53.562;10.048;2023-07-31T05:08:51;4.05;;;2.88;;
52576;SDS011;38469;53.562;10.048;2023-07-31T05:11:17;3.05;;;2.47;;
52576;SDS011;38469;53.562;10.048;2023-07-31T05:13:44;5.38;;;2.80;;
52576;SDS011;38469;53.562;10.048;2023-07-31T05:16:10;2.85;;;2.65;;
52576;SDS011;38469;53.562;10.048;2023-07-31T05:18:37;3.47;;;2.83;;
52576;SDS011;38469;53.562;10.048;2023-07-31T05:21:03;3.83;;;2.63;;
52576;SDS011;38469;53.562;10.048;2023-07-31T05:23:30;2.90;;;2.60;;
52576;SDS011;38469;53.562;10.048;2023-07-31T05:26:03;3.10;;;2.88;;
52576;SDS011;38469;53.562;10.048;2023-07-31T05:28:30;4.18;;;3.00;;
52576;SDS011;38469;53.562;10.048;2023-07-31T05:30:58;3.13;;;2.47;;
52576;SDS011;38469;53.562;10.048;2023-07-31T05:33:25;3.40;;;2.83;;
52576;SDS011;38469;53.562;10.048;2023-07-31T05:35:51;4.60;;;3.30;;
52576;SDS011;38469;53.562;10.048;2023-07-31T05:38:18;3.30;;;3.00;;
52576;SDS011;38469;53.562;10.048;2023-07-31T05:40:44;4.63;;;3.33;;
52576;SDS011;38469;53.562;10.048;2023-07-31T05:43:12;4.43;;;3.35;;
52576;SDS011;38469;53.562;10.048;2023-07-31T05:45:39;3.55;;;3.25;;
52576;SDS011;38469;53.562;10.048;2023-07-31T05:48:06;3.78;;;3.40;;
52576;SDS011;38469;53.562;10.048;2023-07-31T05:50:32;3.75;;;3.40;;
52576;SDS011;38469;53.562;10.048;2023-07-31T05:52:59;3.80;;;3.50;;
52576;SDS011;38469;53.562;10.048;2023-07-31T05:55:25;5.03;;;3.45;;
52576;SDS011;38469;53.562;10.048;2023-07-31T05:57:52;6.50;;;3.20;;
52576;SDS011;38469;53.562;10.048;2023-07-31T06:00:21;3.58;;;3.28;;
52576;SDS011;38469;53.562;10.048;2023-07-31T06:02:47;4.00;;;3.17;;
52576;SDS011;38469;53.562;10.048;2023-07-31T06:05:14;4.15;;;3.30;;
52576;SDS011;38469;53.562;10.048;2023-07-31T06:07:41;7.72;;;3.40;;
52576;SDS011;38469;53.562;10.048;2023-07-31T06:10:07;4.75;;;3.35;;
52576;SDS011;38469;53.562;10.048;2023-07-31T06:12:34;3.75;;;3.40;;
52576;SDS011;38469;53.562;10.048;2023-07-31T06:15:01;3.35;;;3.05;;
52576;SDS011;38469;53.562;10.048;2023-07-31T06:17:30;3.40;;;3.10;;
52576;SDS011;38469;53.562;10.048;2023-07-31T06:19:56;3.15;;;2.95;;
52576;SDS011;38469;53.562;10.048;2023-07-31T06:22:23;3.42;;;3.13;;
52576;SDS011;38469;53.562;10.048;2023-07-31T06:24:49;3.35;;;3.05;;
52576;SDS011;38469;53.562;10.048;2023-07-31T06:27:16;5.22;;;2.80;;
52576;SDS011;38469;53.562;10.048;2023-07-31T06:29:42;4.63;;;3.30;;
52576;SDS011;38469;53.562;10.048;2023-07-31T06:32:09;3.08;;;2.88;;
52576;SDS011;38469;53.562;10.048;2023-07-31T06:34:37;3.00;;;2.80;;
52576;SDS011;38469;53.562;10.048;2023-07-31T06:37:04;3.20;;;3.00;;
52576;SDS011;38469;53.562;10.048;2023-07-31T06:39:30;3.38;;;2.92;;
52576;SDS011;38469;53.562;10.048;2023-07-31T06:41:57;2.80;;;2.60;;
52576;SDS011;38469;53.562;10.048;2023-07-31T06:44:23;3.00;;;2.75;;
52576;SDS011;38469;53.562;10.048;2023-07-31T06:46:50;2.75;;;2.55;;
52576;SDS011;38469;53.562;10.048;2023-07-31T06:49:17;2.90;;;2.70;;
52576;SDS011;38469;53.562;10.048;2023-07-31T06:51:44;2.90;;;2.70;;
52576;SDS011;38469;53.562;10.048;2023-07-31T06:54:11;2.97;;;2.60;;
52576;SDS011;38469;53.562;10.048;2023-07-31T06:56:37;3.08;;;2.83;;
52576;SDS011;38469;53.562;10.048;2023-07-31T06:59:04;5.65;;;2.80;;
52576;SDS011;38469;53.562;10.048;2023-07-31T07:01:30;3.20;;;2.90;;
52576;SDS011;38469;53.562;10.048;2023-07-31T07:03:57;2.33;;;2.13;;
52576;SDS011;38469;53.562;10.048;2023-07-31T07:06:23;2.75;;;2.40;;
52576;SDS011;38469;53.562;10.048;2023-07-31T07:08:51;2.60;;;2.40;;
52576;SDS011;38469;53.562;10.048;2023-07-31T07:11:18;3.10;;;2.83;;
52576;SDS011;38469;53.562;10.048;2023-07-31T07:13:44;3.42;;;2.92;;
52576;SDS011;38469;53.562;10.048;2023-07-31T07:16:10;3.38;;;3.08;;
52576;SDS011;38469;53.562;10.048;2023-07-31T07:18:37;4.68;;;3.58;;
52576;SDS011;38469;53.562;10.048;2023-07-31T07:21:03;3.08;;;2.88;;
52576;SDS011;38469;53.562;10.048;2023-07-31T07:23:30;3.80;;;2.75;;
52576;SDS011;38469;53.562;10.048;2023-07-31T07:25:58;4.82;;;3.28;;
52576;SDS011;38469;53.562;10.048;2023-07-31T07:28:24;4.20;;;2.70;;
52576;SDS011;38469;53.562;10.048;2023-07-31T07:30:51;2.70;;;2.50;;
52576;SDS011;38469;53.562;10.048;2023-07-31T07:33:18;2.95;;;2.75;;
52576;SDS011;38469;53.562;10.048;2023-07-31T07:35:45;3.10;;;2.90;;
52576;SDS011;38469;53.562;10.048;2023-07-31T07:38:13;4.40;;;2.80;;
52576;SDS011;38469;53.562;10.048;2023-07-31T07:40:39;3.00;;;2.80;;
52576;SDS011;38469;53.562;10.048;2023-07-31T07:43:08;3.17;;;2.95;;
52576;SDS011;38469;53.562;10.048;2023-07-31T07:45:34;2.90;;;2.70;;
52576;SDS011;38469;53.562;10.048;2023-07-31T07:48:01;3.03;;;2.83;;
52576;SDS011;38469;53.562;10.048;2023-07-31T07:50:27;3.50;;;3.20;;
52576;SDS011;38469;53.562;10.048;2023-07-31T07:52:53;3.75;;;3.42;;
52576;SDS011;38469;53.562;10.048;2023-07-31T07:55:20;4.20;;;2.72;;
52576;SDS011;38469;53.562;10.048;2023-07-31T07:57:46;3.28;;;2.83;;
52576;SDS011;38469;53.562;10.048;2023-07-31T08:00:16;2.90;;;2.70;;
52576;SDS011;38469;53.562;10.048;2023-07-31T08:02:43;3.00;;;2.70;;
52576;SDS011;38469;53.562;10.048;2023-07-31T08:05:09;3.60;;;3.00;;
52576;SDS011;38469;53.562;10.048;2023-07-31T08:07:36;5.45;;;3.10;;
52576;SDS011;38469;53.562;10.048;2023-07-31T08:10:02;2.95;;;2.75;;
52576;SDS011;38469;53.562;10.048;2023-07-31T08:12:29;2.97;;;2.63;;
52576;SDS011;38469;53.562;10.048;2023-07-31T08:14:56;2.67;;;2.47;;
52576;SDS011;38469;53.562;10.048;2023-07-31T08:17:24;3.33;;;2.90;;
52576;SDS011;38469;53.562;10.048;2023-07-31T08:19:50;3.05;;;2.85;;
52576;SDS011;38469;53.562;10.048;2023-07-31T08:22:17;2.50;;;2.30;;
52576;SDS011;38469;53.562;10.048;2023-07-31T08:24:43;2.10;;;1.90;;
52576;SDS011;38469;53.562;10.048;2023-07-31T08:27:10;2.72;;;1.92;;
52576;SDS011;38469;53.562;10.048;2023-07-31T08:29:36;1.63;;;1.52;;
52576;SDS011;38469;53.562;10.048;2023-07-31T08:32:03;2.80;;;2.50;;
52576;SDS011;38469;53.562;10.048;2023-07-31T08:34:31;3.83;;;3.00;;
52576;SDS011;38469;53.562;10.048;2023-07-31T08:36:57;2.97;;;2.45;;
52576;SDS011;38469;53.562;10.048;2023-07-31T08:39:24;3.40;;;1.65;;
52576;SDS011;38469;53.562;10.048;2023-07-31T08:41:50;1.90;;;1.80;;
52576;SDS011;38469;53.562;10.048;2023-07-31T08:44:17;2.20;;;1.70;;
52576;SDS011;38469;53.562;10.048;2023-07-31T08:46:44;2.63;;;1.70;;
52576;SDS011;38469;53.562;10.048;2023-07-31T08:49:12;2.10;;;1.35;;
52576;SDS011;38469;53.562;10.048;2023-07-31T08:51:40;1.63;;;1.52;;
52576;SDS011;38469;53.562;10.048;2023-07-31T08:54:08;1.50;;;1.40;;
52576;SDS011;38469;53.562;10.048;2023-07-31T08:56:34;2.95;;;1.95;;
52576;SDS011;38469;53.562;10.048;2023-07-31T08:59:02;1.73;;;1.63;;
52576;SDS011;38469;53.562;10.048;2023-07-31T09:01:30;1.58;;;1.48;;
52576;SDS011;38469;53.562;10.048;2023-07-31T09:04:01;1.67;;;1.58;;
52576;SDS011;38469;53.562;10.048;2023-07-31T09:06:30;1.95;;;1.30;;
52576;SDS011;38469;53.562;10.048;2023-07-31T09:08:58;1.63;;;1.50;;
52576;SDS011;38469;53.562;10.048;2023-07-31T09:11:25;2.53;;;1.45;;
52576;SDS011;38469;53.562;10.048;2023-07-31T09:13:52;1.58;;;1.48;;
52576;SDS011;38469;53.562;10.048;2023-07-31T09:16:25;2.28;;;1.90;;
52576;SDS011;38469;53.562;10.048;2023-07-31T09:18:55;3.05;;;1.80;;
52576;SDS011;38469;53.562;10.048;2023-07-31T09:21:23;1.55;;;1.45;;
52576;SDS011;38469;53.562;10.048;2023-07-31T09:23:51;2.75;;;1.52;;
52576;SDS011;38469;53.562;10.048;2023-07-31T09:26:30;1.30;;;1.20;;
52576;SDS011;38469;53.562;10.048;2023-07-31T09:28:57;1.67;;;1.38;;
52576;SDS011;38469;53.562;10.048;2023-07-31T09:31:38;5.22;;;1.70;;
52576;SDS011;38469;53.562;10.048;2023-07-31T09:34:05;3.15;;;1.33;;
52576;SDS011;38469;53.562;10.048;2023-07-31T09:36:31;1.50;;;1.30;;
52576;SDS011;38469;53.562;10.048;2023-07-31T09:39:01;1.08;;;1.05;;
52576;SDS011;38469;53.562;10.048;2023-07-31T09:41:30;1.77;;;1.20;;
52576;SDS011;38469;53.562;10.048;2023-07-31T09:43:57;3.65;;;1.50;;
52576;SDS011;38469;53.562;10.048;2023-07-31T09:46:23;4.38;;;1.30;;
52576;SDS011;38469;53.562;10.048;2023-07-31T09:48:53;1.85;;;1.00;;
52576;SDS011;38469;53.562;10.048;2023-07-31T09:51:30;1.38;;;1.20;;
52576;SDS011;38469;53.562;10.048;2023-07-31T09:53:57;1.90;;;1.02;;
52576;SDS011;38469;53.562;10.048;2023-07-31T09:56:23;4.15;;;1.45;;
52576;SDS011;38469;53.562;10.048;2023-07-31T09:58:53;2.80;;;1.13;;
52576;SDS011;38469;53.562;10.048;2023-07-31T10:01:20;2.13;;;1.23;;
52576;SDS011;38469;53.562;10.048;2023-07-31T10:03:46;1.67;;;0.90;;
52576;SDS011;38469;53.562;10.048;2023-07-31T10:06:13;2.03;;;1.10;;
52576;SDS011;38469;53.562;10.048;2023-07-31T10:08:44;1.83;;;1.00;;
52576;SDS011;38469;53.562;10.048;2023-07-31T10:11:13;1.55;;;1.20;;
52576;SDS011;38469;53.562;10.048;2023-07-31T10:13:41;1.80;;;1.20;;
52576;SDS011;38469;53.562;10.048;2023-07-31T10:16:10;1.42;;;0.75;;
52576;SDS011;38469;53.562;10.048;2023-07-31T10:18:38;1.15;;;0.95;;
52576;SDS011;38469;53.562;10.048;2023-07-31T10:21:05;2.10;;;1.27;;
52576;SDS011;38469;53.562;10.048;2023-07-31T10:23:33;0.82;;;0.82;;
52576;SDS011;38469;53.562;10.048;2023-07-31T10:26:00;1.20;;;0.85;;
52576;SDS011;38469;53.562;10.048;2023-07-31T10:28:28;1.27;;;1.17;;
52576;SDS011;38469;53.562;10.048;2023-07-31T10:30:55;4.90;;;0.98;;
52576;SDS011;38469;53.562;10.048;2023-07-31T10:33:23;0.80;;;0.80;;
52576;SDS011;38469;53.562;10.048;2023-07-31T10:35:50;1.60;;;0.80;;
52576;SDS011;38469;53.562;10.048;2023-07-31T10:38:33;1.92;;;0.90;;
52576;SDS011;38469;53.562;10.048;2023-07-31T10:41:07;1.00;;;0.90;;
52576;SDS011;38469;53.562;10.048;2023-07-31T10:43:34;1.73;;;0.88;;
52576;SDS011;38469;53.562;10.048;2023-07-31T10:46:06;1.52;;;0.80;;
52576;SDS011;38469;53.562;10.048;2023-07-31T10:48:34;2.22;;;1.13;;
52576;SDS011;38469;53.562;10.048;2023-07-31T10:51:02;0.77;;;0.75;;
52576;SDS011;38469;53.562;10.048;2023-07-31T10:53:33;2.08;;;1.10;;
52576;SDS011;38469;53.562;10.048;2023-07-31T10:56:00;1.70;;;1.10;;
52576;SDS011;38469;53.562;10.048;2023-07-31T10:58:27;1.67;;;1.13;;
52576;SDS011;38469;53.562;10.048;2023-07-31T11:00:55;1.20;;;1.10;;
52576;SDS011;38469;53.562;10.048;2023-07-31T11:03:24;2.00;;;1.00;;
52576;SDS011;38469;53.562;10.048;2023-07-31T11:05:55;2.53;;;2.20;;
52576;SDS011;38469;53.562;10.048;2023-07-31T11:08:28;3.80;;;1.55;;
52576;SDS011;38469;53.562;10.048;2023-07-31T11:11:04;3.20;;;1.45;;
52576;SDS011;38469;53.562;10.048;2023-07-31T11:13:32;8.00;;;3.40;;
52576;SDS011;38469;53.562;10.048;2023-07-31T11:16:00;9.90;;;3.80;;
52576;SDS011;38469;53.562;10.048;2023-07-31T11:18:27;6.55;;;4.35;;
52576;SDS011;38469;53.562;10.048;2023-07-31T11:20:55;7.47;;;4.68;;
52576;SDS011;38469;53.562;10.048;2023-07-31T11:23:21;6.03;;;5.07;;
52576;SDS011;38469;53.562;10.048;2023-07-31T11:25:49;8.25;;;4.65;;
52576;SDS011;38469;53.562;10.048;2023-07-31T11:28:16;6.88;;;4.47;;
52576;SDS011;38469;53.562;10.048;2023-07-31T11:30:44;9.80;;;6.10;;
52576;SDS011;38469;53.562;10.048;2023-07-31T11:33:12;12.48;;;6.32;;
52576;SDS011;38469;53.562;10.048;2023-07-31T11:35:41;14.00;;;7.75;;
52576;SDS011;38469;53.562;10.048;2023-07-31T11:38:11;10.15;;;5.55;;
52576;SDS011;38469;53.562;10.048;2023-07-31T11:40:40;11.82;;;6.22;;
52576;SDS011;38469;53.562;10.048;2023-07-31T11:43:08;9.32;;;6.10;;
52576;SDS011;38469;53.562;10.048;2023-07-31T11:45:34;9.68;;;5.47;;
52576;SDS011;38469;53.562;10.048;2023-07-31T11:48:01;9.88;;;5.70;;
52576;SDS011;38469;53.562;10.048;2023-07-31T11:50:28;9.40;;;5.43;;
52576;SDS011;38469;53.562;10.048;2023-07-31T11:52:55;8.57;;;5.60;;
52576;SDS011;38469;53.562;10.048;2023-07-31T11:55:26;8.02;;;5.15;;
52576;SDS011;38469;53.562;10.048;2023-07-31T11:57:56;6.57;;;4.75;;
52576;SDS011;38469;53.562;10.048;2023-07-31T12:00:24;5.75;;;4.38;;
52576;SDS011;38469;53.562;10.048;2023-07-31T12:02:51;7.38;;;4.53;;
52576;SDS011;38469;53.562;10.048;2023-07-31T12:05:18;6.82;;;4.85;;
52576;SDS011;38469;53.562;10.048;2023-07-31T12:07:46;9.68;;;4.70;;
52576;SDS011;38469;53.562;10.048;2023-07-31T12:10:28;7.80;;;4.60;;
52576;SDS011;38469;53.562;10.048;2023-07-31T12:12:56;7.30;;;3.95;;
52576;SDS011;38469;53.562;10.048;2023-07-31T12:15:28;3.22;;;1.75;;
52576;SDS011;38469;53.562;10.048;2023-07-31T12:18:06;1.10;;;1.00;;
52576;SDS011;38469;53.562;10.048;2023-07-31T12:20:34;1.55;;;1.10;;
52576;SDS011;38469;53.562;10.048;2023-07-31T12:23:01;6.45;;;1.00;;
52576;SDS011;38469;53.562;10.048;2023-07-31T12:25:32;1.42;;;0.88;;
52576;SDS011;38469;53.562;10.048;2023-07-31T12:28:04;1.95;;;1.00;;
52576;SDS011;38469;53.562;10.048;2023-07-31T12:30:32;0.93;;;0.68;;
52576;SDS011;38469;53.562;10.048;2023-07-31T12:33:02;2.47;;;1.50;;
52576;SDS011;38469;53.562;10.048;2023-07-31T12:35:34;0.80;;;0.60;;
52576;SDS011;38469;53.562;10.048;2023-07-31T12:38:01;0.70;;;0.60;;
52576;SDS011;38469;53.562;10.048;2023-07-31T12:40:28;1.33;;;0.63;;
52576;SDS011;38469;53.562;10.048;2023-07-31T12:42:56;0.60;;;0.50;;
52576;SDS011;38469;53.562;10.048;2023-07-31T12:45:23;0.60;;;0.60;;
52576;SDS011;38469;53.562;10.048;2023-07-31T12:47:49;0.50;;;0.50;;
52576;SDS011;38469;53.562;10.048;2023-07-31T12:50:16;0.80;;;0.57;;
52576;SDS011;38469;53.562;10.048;2023-07-31T12:52:42;1.05;;;0.50;;
52576;SDS011;38469;53.562;10.048;2023-07-31T12:55:09;0.93;;;0.68;;
52576;SDS011;38469;53.562;10.048;2023-07-31T12:57:36;1.00;;;0.80;;
52576;SDS011;38469;53.562;10.048;2023-07-31T13:00:05;0.60;;;0.60;;
52576;SDS011;38469;53.562;10.048;2023-07-31T13:02:32;1.85;;;0.70;;
52576;SDS011;38469;53.562;10.048;2023-07-31T13:04:59;0.80;;;0.70;;
52576;SDS011;38469;53.562;10.048;2023-07-31T13:07:26;2.25;;;0.70;;
52576;SDS011;38469;53.562;10.048;2023-07-31T13:09:52;0.93;;;0.70;;
52576;SDS011;38469;53.562;10.048;2023-07-31T13:12:19;1.02;;;0.68;;
52576;SDS011;38469;53.562;10.048;2023-07-31T13:14:45;1.20;;;0.90;;
52576;SDS011;38469;53.562;10.048;2023-07-31T13:17:13;2.42;;;0.88;;
52576;SDS011;38469;53.562;10.048;2023-07-31T13:19:39;1.20;;;1.10;;
52576;SDS011;38469;53.562;10.048;2023-07-31T13:22:06;0.80;;;0.80;;
52576;SDS011;38469;53.562;10.048;2023-07-31T13:24:32;2.55;;;1.00;;
52576;SDS011;38469;53.562;10.048;2023-07-31T13:26:59;1.23;;;1.10;;
52576;SDS011;38469;53.562;10.048;2023-07-31T13:29:25;2.15;;;1.38;;
52576;SDS011;38469;53.562;10.048;2023-07-31T13:31:52;0.93;;;0.90;;
52576;SDS011;38469;53.562;10.048;2023-07-31T13:34:20;3.08;;;1.38;;
52576;SDS011;38469;53.562;10.048;2023-07-31T13:36:46;2.47;;;1.42;;
52576;SDS011;38469;53.562;10.048;2023-07-31T13:39:13;1.70;;;1.60;;
52576;SDS011;38469;53.562;10.048;2023-07-31T13:41:39;2.70;;;1.70;;
52576;SDS011;38469;53.562;10.048;2023-07-31T13:44:06;1.48;;;1.38;;
52576;SDS011;38469;53.562;10.048;2023-07-31T13:46:32;1.58;;;1.40;;
52576;SDS011;38469;53.562;10.048;2023-07-31T13:48:59;1.48;;;1.20;;
52576;SDS011;38469;53.562;10.048;2023-07-31T13:51:27;1.35;;;0.90;;
52576;SDS011;38469;53.562;10.048;2023-07-31T13:53:54;1.60;;;1.08;;
52576;SDS011;38469;53.562;10.048;2023-07-31T13:56:20;2.40;;;1.90;;
52576;SDS011;38469;53.562;10.048;2023-07-31T13:58:47;2.88;;;1.67;;
52576;SDS011;38469;53.562;10.048;2023-07-31T14:01:13;4.05;;;2.50;;
52576;SDS011;38469;53.562;10.048;2023-07-31T14:03:40;3.10;;;2.08;;
52576;SDS011;38469;53.562;10.048;2023-07-31T14:06:06;5.32;;;2.72;;
52576;SDS011;38469;53.562;10.048;2023-07-31T14:08:34;2.20;;;1.90;;
52576;SDS011;38469;53.562;10.048;2023-07-31T14:11:01;1.95;;;1.50;;
52576;SDS011;38469;53.562;10.048;2023-07-31T14:13:27;1.80;;;1.48;;
52576;SDS011;38469;53.562;10.048;2023-07-31T14:15:54;1.60;;;1.50;;
52576;SDS011;38469;53.562;10.048;2023-07-31T14:18:20;1.58;;;1.48;;
52576;SDS011;38469;53.562;10.048;2023-07-31T14:20:47;2.63;;;1.33;;
52576;SDS011;38469;53.562;10.048;2023-07-31T14:23:13;2.55;;;1.15;;
52576;SDS011;38469;53.562;10.048;2023-07-31T14:25:41;1.10;;;1.00;;
52576;SDS011;38469;53.562;10.048;2023-07-31T14:28:08;1.42;;;1.23;;
52576;SDS011;38469;53.562;10.048;2023-07-31T14:30:34;3.00;;;1.00;;
52576;SDS011;38469;53.562;10.048;2023-07-31T14:33:01;0.90;;;0.90;;
52576;SDS011;38469;53.562;10.048;2023-07-31T14:35:27;1.13;;;1.00;;
52576;SDS011;38469;53.562;10.048;2023-07-31T14:37:54;1.98;;;1.13;;